Time;durP1;ratioP1;P1;durP2;ratioP2;P2;SDS_P1;SDS_P2;PMS_P1;PMS_P2;Temp;Humidity;BMP_temperature;BMP_pressure;BME280_temperature;BME280_humidity;BME280_pressure;Samples;Min_cycle;Max_cycle;Signal;HPM_P1;HPM_P2
2024/01/24 00:00:22;;;;;;;2.23;0.80;;;14.40;99.90;;;;;;5048199;28;20192;-74
2024/01/24 00:02:48;;;;;;;1.80;0.80;;;14.40;99.90;;;;;;5039570;28;20230;-74
2024/01/24 00:05:14;;;;;;;2.50;0.60;;;14.50;99.90;;;;;;5047107;28;20638;-74
2024/01/24 00:07:40;;;;;;;1.70;0.70;;;14.50;99.90;;;;;;5042471;28;20203;-74
2024/01/24 00:10:06;;;;;;;1.90;0.67;;;14.60;99.90;;;;;;5066752;28;20618;-74
2024/01/24 00:12:32;;;;;;;2.90;0.60;;;14.70;99.90;;;;;;5064128;28;20384;-74
2024/01/24 00:14:58;;;;;;;3.40;0.70;;;14.70;99.90;;;;;;5043440;28;20599;-74
2024/01/24 00:17:23;;;;;;;2.50;0.70;;;14.80;99.90;;;;;;5074326;28;20193;-74
2024/01/24 00:19:49;;;;;;;1.53;0.60;;;14.80;99.90;;;;;;5045015;28;20203;-74
2024/01/24 00:22:15;;;;;;;1.70;0.70;;;14.90;99.90;;;;;;5064751;28;20164;-73
2024/01/24 00:24:41;;;;;;;2.07;0.80;;;14.90;99.90;;;;;;5057463;28;20176;-74
2024/01/24 00:27:06;;;;;;;1.80;0.60;;;14.90;99.90;;;;;;5062737;28;20202;-73
2024/01/24 00:29:32;;;;;;;1.70;0.70;;;15.00;99.90;;;;;;5043534;28;20226;-74
2024/01/24 00:31:58;;;;;;;4.30;1.20;;;15.00;99.90;;;;;;5043718;28;20260;-74
2024/01/24 00:34:23;;;;;;;2.27;0.70;;;15.10;99.90;;;;;;5047831;28;20169;-74
2024/01/24 00:36:50;;;;;;;2.60;0.70;;;15.10;99.90;;;;;;5039344;28;20176;-74
2024/01/24 00:39:16;;;;;;;2.83;0.90;;;15.10;99.90;;;;;;5061598;28;20191;-73
2024/01/24 00:41:42;;;;;;;2.53;0.93;;;15.20;99.90;;;;;;5061936;28;20578;-75
2024/01/24 00:44:09;;;;;;;1.30;0.70;;;15.20;99.90;;;;;;5041963;28;20580;-73
2024/01/24 00:46:35;;;;;;;2.93;0.73;;;15.20;99.90;;;;;;5037102;28;20641;-73
2024/01/24 00:49:02;;;;;;;2.87;0.80;;;15.20;99.90;;;;;;5043283;28;20670;-74
2024/01/24 00:51:28;;;;;;;3.03;0.80;;;15.30;99.90;;;;;;5022547;28;21075;-73
2024/01/24 00:53:54;;;;;;;2.30;0.70;;;15.30;99.90;;;;;;5045452;28;20598;-73
2024/01/24 00:56:20;;;;;;;2.03;0.50;;;15.30;99.90;;;;;;5051057;28;20255;-73
2024/01/24 00:58:46;;;;;;;1.53;0.70;;;15.40;99.90;;;;;;5070074;28;20203;-73
2024/01/24 01:01:12;;;;;;;2.00;0.70;;;15.40;99.90;;;;;;5061617;28;20607;-73
2024/01/24 01:03:38;;;;;;;2.60;0.80;;;15.40;99.90;;;;;;5078398;28;20582;-74
2024/01/24 01:06:05;;;;;;;1.83;0.80;;;15.40;99.90;;;;;;5041954;28;20602;-74
2024/01/24 01:08:31;;;;;;;4.07;1.20;;;15.40;99.90;;;;;;5039961;28;20928;-74
2024/01/24 01:10:56;;;;;;;2.67;0.90;;;15.50;99.90;;;;;;5023405;28;20709;-74
2024/01/24 01:13:22;;;;;;;2.60;1.00;;;15.50;99.90;;;;;;5063091;28;20169;-74
2024/01/24 01:15:48;;;;;;;2.40;0.90;;;15.50;99.90;;;;;;5047810;28;20207;-74
2024/01/24 01:18:14;;;;;;;2.23;0.90;;;15.60;99.90;;;;;;5051742;28;21060;-74
2024/01/24 01:20:40;;;;;;;3.57;0.80;;;15.60;99.90;;;;;;5049880;28;20195;-74
2024/01/24 01:23:05;;;;;;;3.63;0.80;;;15.60;99.90;;;;;;5045912;28;20238;-74
2024/01/24 01:25:31;;;;;;;3.70;2.20;;;15.60;99.90;;;;;;5070680;28;20214;-74
2024/01/24 01:27:57;;;;;;;2.10;0.87;;;15.60;99.90;;;;;;5050364;28;20272;-74
2024/01/24 01:30:23;;;;;;;3.97;0.90;;;15.60;99.90;;;;;;5046741;28;20644;-74
2024/01/24 01:32:50;;;;;;;2.03;0.70;;;15.70;99.90;;;;;;5039642;28;20583;-74
2024/01/24 01:35:16;;;;;;;4.00;0.93;;;15.70;99.90;;;;;;5042733;28;20586;-74
2024/01/24 01:37:42;;;;;;;3.20;0.80;;;15.70;99.90;;;;;;5061277;28;20634;-74
2024/01/24 01:40:08;;;;;;;2.17;0.70;;;15.70;99.90;;;;;;5044609;28;20670;-74
2024/01/24 01:42:34;;;;;;;1.90;0.80;;;15.70;99.90;;;;;;5064936;28;20940;-74
2024/01/24 01:44:59;;;;;;;3.20;0.83;;;15.80;99.90;;;;;;5072394;28;20599;-74
2024/01/24 01:47:25;;;;;;;1.77;0.67;;;15.80;99.90;;;;;;5064362;28;20176;-74
2024/01/24 01:49:52;;;;;;;2.43;0.73;;;15.80;99.90;;;;;;5054864;28;20202;-74
2024/01/24 01:52:19;;;;;;;4.03;1.10;;;15.80;99.90;;;;;;5046575;28;20634;-73
2024/01/24 01:54:47;;;;;;;1.93;0.70;;;15.80;99.90;;;;;;5030087;28;20599;-74
2024/01/24 01:57:14;;;;;;;2.07;0.87;;;15.80;99.90;;;;;;5063813;28;20579;-74
2024/01/24 01:59:41;;;;;;;1.90;0.80;;;15.90;99.90;;;;;;5072413;28;20618;-74
2024/01/24 02:02:07;;;;;;;2.90;0.80;;;15.90;99.90;;;;;;5072561;28;20582;-74
2024/01/24 02:04:33;;;;;;;4.80;0.80;;;15.90;99.90;;;;;;5030085;28;20680;-74
2024/01/24 02:07:00;;;;;;;2.60;1.00;;;15.90;99.90;;;;;;5053995;28;20625;-74
2024/01/24 02:09:26;;;;;;;6.00;0.80;;;15.90;99.90;;;;;;5054332;28;20223;-74
2024/01/24 02:11:52;;;;;;;2.73;0.67;;;15.90;99.90;;;;;;5046425;28;20594;-74
2024/01/24 02:14:18;;;;;;;4.10;0.70;;;15.90;99.90;;;;;;5069859;28;20594;-74
2024/01/24 02:16:43;;;;;;;2.13;0.90;;;15.90;99.90;;;;;;5042210;28;20185;-74
2024/01/24 02:19:10;;;;;;;1.70;0.60;;;15.90;99.90;;;;;;5045279;28;20204;-74
2024/01/24 02:21:37;;;;;;;2.00;0.60;;;15.90;99.90;;;;;;5047557;28;20591;-74
2024/01/24 02:24:03;;;;;;;2.47;1.07;;;15.90;99.90;;;;;;5046692;28;20588;-74
2024/01/24 02:26:29;;;;;;;1.87;0.60;;;16.00;99.90;;;;;;5048427;28;20941;-74
2024/01/24 02:28:55;;;;;;;1.50;0.50;;;16.00;99.90;;;;;;5042377;28;20590;-74
2024/01/24 02:31:21;;;;;;;2.70;0.93;;;16.00;99.90;;;;;;5053269;28;21211;-74
2024/01/24 02:33:46;;;;;;;1.40;0.67;;;16.00;99.90;;;;;;5072283;28;20172;-74
2024/01/24 02:36:14;;;;;;;2.13;0.70;;;16.00;99.90;;;;;;5051782;28;20195;-74
2024/01/24 02:42:08;;;;;;;1.57;0.67;;;16.00;99.90;;;;;;5045820;28;20654;-74
2024/01/24 02:44:34;;;;;;;2.27;0.57;;;16.00;99.90;;;;;;5063366;28;20582;-73
2024/01/24 02:47:00;;;;;;;2.70;0.60;;;16.00;99.90;;;;;;5045141;28;20184;-73
2024/01/24 02:49:26;;;;;;;2.03;0.60;;;16.10;99.90;;;;;;5054761;28;20606;-73
2024/01/24 02:51:52;;;;;;;1.40;0.60;;;16.10;99.90;;;;;;5071781;28;20938;-73
2024/01/24 02:54:17;;;;;;;2.10;0.60;;;16.10;99.90;;;;;;5051531;28;20706;-72
2024/01/24 02:56:44;;;;;;;1.77;0.60;;;16.10;99.90;;;;;;5065551;28;20176;-72
2024/01/24 02:59:10;;;;;;;1.37;0.60;;;16.20;99.90;;;;;;5051913;28;20250;-72
2024/01/24 03:01:36;;;;;;;1.50;0.50;;;16.20;99.90;;;;;;5053453;28;20583;-72
2024/01/24 03:04:01;;;;;;;1.63;0.70;;;16.20;99.90;;;;;;5071465;28;20597;-72
2024/01/24 03:06:27;;;;;;;1.50;0.50;;;16.20;99.90;;;;;;5061701;28;20181;-73
2024/01/24 03:08:58;;;;;;;2.03;0.50;;;16.20;99.90;;;;;;5062662;28;20718;-72
2024/01/24 03:11:24;;;;;;;1.70;0.60;;;16.20;99.90;;;;;;5044992;28;20200;-72
2024/01/24 03:13:50;;;;;;;2.37;1.00;;;16.30;99.90;;;;;;5046848;28;20683;-72
2024/01/24 03:16:17;;;;;;;1.83;0.40;;;16.30;99.90;;;;;;5061234;28;21184;-72
2024/01/24 03:18:42;;;;;;;1.47;0.50;;;16.30;99.90;;;;;;5047100;28;20714;-72
2024/01/24 03:21:13;;;;;;;1.50;0.47;;;16.30;99.90;;;;;;5067328;28;21001;-72
2024/01/24 03:23:39;;;;;;;3.10;0.50;;;16.30;99.90;;;;;;5059679;28;20587;-72
2024/01/24 03:26:06;;;;;;;1.50;0.50;;;16.30;99.90;;;;;;5041259;28;20674;-73
2024/01/24 03:28:32;;;;;;;1.23;0.50;;;16.40;99.90;;;;;;5032543;28;20184;-73
2024/01/24 03:31:02;;;;;;;1.73;0.50;;;16.40;99.90;;;;;;5032433;28;20642;-73
2024/01/24 03:33:28;;;;;;;2.03;0.40;;;16.30;99.90;;;;;;5041253;28;21144;-72
2024/01/24 03:35:54;;;;;;;1.13;0.40;;;16.40;99.90;;;;;;5041083;28;20599;-72
2024/01/24 03:38:19;;;;;;;1.57;0.50;;;16.40;99.90;;;;;;5066793;28;20989;-73
2024/01/24 03:40:45;;;;;;;1.27;0.47;;;16.40;99.90;;;;;;5024712;28;20220;-72
2024/01/24 03:43:12;;;;;;;1.43;0.40;;;16.40;99.90;;;;;;5061048;28;20228;-72
2024/01/24 03:45:38;;;;;;;2.33;0.40;;;16.40;99.90;;;;;;5051449;28;20589;-72
2024/01/24 03:48:06;;;;;;;1.50;0.40;;;16.40;99.90;;;;;;5061808;28;21144;-72
2024/01/24 03:50:32;;;;;;;1.47;0.40;;;16.40;99.90;;;;;;5032779;28;20615;-72
2024/01/24 03:53:01;;;;;;;1.20;0.50;;;16.40;99.90;;;;;;5032479;28;21108;-72
2024/01/24 03:55:28;;;;;;;1.10;0.40;;;16.40;99.90;;;;;;5065237;28;20618;-73
2024/01/24 03:57:53;;;;;;;1.10;0.30;;;16.40;99.90;;;;;;5066464;28;20633;-73
2024/01/24 04:00:19;;;;;;;1.30;0.40;;;16.40;99.90;;;;;;5070290;28;20640;-72
2024/01/24 04:02:45;;;;;;;1.10;0.30;;;16.40;99.90;;;;;;5065176;28;20177;-72
2024/01/24 04:05:11;;;;;;;1.10;0.40;;;16.30;99.90;;;;;;5041199;28;20591;-72
2024/01/24 04:07:36;;;;;;;1.10;0.30;;;16.30;99.90;;;;;;5051512;28;20176;-72
2024/01/24 04:10:03;;;;;;;1.30;0.40;;;16.40;99.90;;;;;;5062329;28;20212;-72
2024/01/24 04:12:30;;;;;;;1.10;0.30;;;16.30;99.90;;;;;;5038980;28;20213;-73
2024/01/24 04:14:57;;;;;;;1.50;0.37;;;16.40;99.90;;;;;;5056726;28;20608;-73
2024/01/24 04:17:22;;;;;;;1.23;0.40;;;16.40;99.90;;;;;;5067941;28;20617;-73
2024/01/24 04:19:48;;;;;;;1.10;0.40;;;16.40;99.90;;;;;;5045715;28;20657;-72
2024/01/24 04:22:15;;;;;;;1.20;0.30;;;16.40;99.90;;;;;;5044048;28;20543;-72
2024/01/24 04:24:42;;;;;;;1.07;0.33;;;16.40;99.90;;;;;;5044056;28;20175;-72
2024/01/24 04:27:07;;;;;;;1.00;0.30;;;16.40;99.90;;;;;;5051649;28;21192;-72
2024/01/24 04:29:33;;;;;;;1.10;0.30;;;16.50;99.90;;;;;;5057590;28;20726;-73
2024/01/24 04:31:59;;;;;;;1.30;0.37;;;16.40;99.90;;;;;;5039355;28;20188;-73
2024/01/24 04:34:25;;;;;;;3.57;0.40;;;16.50;99.90;;;;;;5061762;28;20184;-72
2024/01/24 04:36:54;;;;;;;1.10;0.40;;;16.50;99.90;;;;;;5051932;28;20192;-72
2024/01/24 04:39:20;;;;;;;1.00;0.30;;;16.40;99.90;;;;;;5035007;28;20201;-73
2024/01/24 04:41:46;;;;;;;1.47;0.40;;;16.40;99.90;;;;;;5043918;28;20610;-72
2024/01/24 04:44:11;;;;;;;1.13;0.40;;;16.40;99.90;;;;;;5061727;28;20588;-73
2024/01/24 04:46:37;;;;;;;1.73;0.40;;;16.40;99.90;;;;;;5031332;28;20721;-72
2024/01/24 04:49:03;;;;;;;1.10;0.37;;;16.40;99.90;;;;;;5060500;28;20191;-73
2024/01/24 04:51:29;;;;;;;1.10;0.40;;;16.40;99.90;;;;;;5073121;28;20223;-72
2024/01/24 04:53:54;;;;;;;1.20;0.43;;;16.40;99.90;;;;;;5056134;28;20180;-73
2024/01/24 04:56:20;;;;;;;1.40;0.40;;;16.30;99.90;;;;;;5073561;28;20188;-72
2024/01/24 04:58:45;;;;;;;1.70;0.40;;;16.30;99.90;;;;;;5055392;28;20199;-73
2024/01/24 05:01:11;;;;;;;1.10;0.40;;;16.30;99.90;;;;;;5065196;28;20198;-73
2024/01/24 05:03:37;;;;;;;1.37;0.60;;;16.30;99.90;;;;;;5039448;28;20177;-72
2024/01/24 05:06:03;;;;;;;2.00;0.40;;;16.20;99.90;;;;;;5066195;28;21167;-72
2024/01/24 05:08:29;;;;;;;1.30;0.40;;;16.10;99.90;;;;;;5071455;28;20986;-72
2024/01/24 05:10:55;;;;;;;1.60;0.40;;;16.10;99.90;;;;;;5073727;28;20606;-72
2024/01/24 05:13:21;;;;;;;1.50;0.40;;;16.00;99.90;;;;;;5020908;28;20277;-72
2024/01/24 05:15:47;;;;;;;1.00;0.40;;;16.00;99.90;;;;;;5048576;28;20691;-72
2024/01/24 05:18:12;;;;;;;1.10;0.40;;;15.90;99.90;;;;;;5072620;28;20204;-72
2024/01/24 05:20:38;;;;;;;1.77;0.40;;;15.90;99.90;;;;;;5051307;28;20704;-72
2024/01/24 05:23:04;;;;;;;1.30;0.50;;;15.90;99.90;;;;;;5066723;28;20540;-72
2024/01/24 05:25:30;;;;;;;1.80;0.40;;;15.90;99.90;;;;;;5052631;28;20183;-72
2024/01/24 05:27:56;;;;;;;1.10;0.40;;;15.90;99.90;;;;;;5055705;28;20623;-72
2024/01/24 05:30:22;;;;;;;1.10;0.40;;;15.90;99.90;;;;;;5023864;28;20619;-73
2024/01/24 05:32:47;;;;;;;1.60;0.50;;;15.90;99.90;;;;;;5064946;28;20582;-73
2024/01/24 05:35:13;;;;;;;1.13;0.40;;;15.90;99.90;;;;;;5046724;28;20188;-73
2024/01/24 05:37:39;;;;;;;1.50;0.40;;;15.90;99.90;;;;;;5042202;28;20200;-73
2024/01/24 05:40:06;;;;;;;1.90;0.47;;;15.90;99.90;;;;;;5068602;28;20334;-73
2024/01/24 05:42:32;;;;;;;2.23;0.70;;;15.90;99.90;;;;;;5035564;28;20598;-72
2024/01/24 05:44:58;;;;;;;1.73;0.40;;;15.80;99.90;;;;;;5067658;28;20586;-73
2024/01/24 05:47:24;;;;;;;1.83;0.50;;;15.70;99.90;;;;;;5055138;28;20670;-73
2024/01/24 05:49:49;;;;;;;1.43;0.50;;;15.60;99.90;;;;;;5072423;28;20614;-73
2024/01/24 05:52:15;;;;;;;2.50;0.50;;;15.50;99.90;;;;;;5072833;28;20238;-73
2024/01/24 05:54:41;;;;;;;3.37;0.60;;;15.40;99.90;;;;;;5054504;28;20222;-73
2024/01/24 05:57:07;;;;;;;2.37;0.60;;;15.30;99.90;;;;;;5055090;28;20230;-74
2024/01/24 05:59:32;;;;;;;4.90;0.60;;;15.30;99.90;;;;;;5052752;28;21408;-74
2024/01/24 06:01:58;;;;;;;3.17;0.80;;;15.30;99.90;;;;;;5054914;28;20695;-74
2024/01/24 06:04:24;;;;;;;2.90;0.70;;;15.20;99.90;;;;;;5052850;28;20180;-74
2024/01/24 06:06:49;;;;;;;3.57;0.70;;;15.10;99.90;;;;;;5054362;28;20238;-74
2024/01/24 06:09:18;;;;;;;6.00;0.80;;;15.10;99.90;;;;;;5054130;28;20176;-74
2024/01/24 06:11:45;;;;;;;3.30;0.70;;;15.10;99.90;;;;;;5054810;28;20172;-73
2024/01/24 06:14:11;;;;;;;4.20;0.73;;;15.10;99.90;;;;;;5054785;28;21166;-74
2024/01/24 06:16:37;;;;;;;9.30;1.00;;;15.00;99.90;;;;;;5026377;28;20583;-74
2024/01/24 06:19:03;;;;;;;4.03;0.90;;;15.00;99.90;;;;;;5049027;28;20294;-74
2024/01/24 06:21:28;;;;;;;5.10;0.90;;;15.00;99.90;;;;;;5072239;28;20331;-74
2024/01/24 06:23:54;;;;;;;5.17;0.90;;;14.90;99.90;;;;;;5072605;28;20793;-74
2024/01/24 06:26:19;;;;;;;7.37;1.37;;;14.90;99.90;;;;;;5045955;28;20169;-74
2024/01/24 06:28:46;;;;;;;9.23;1.00;;;15.00;99.90;;;;;;5037251;28;20176;-74
2024/01/24 06:31:12;;;;;;;5.10;1.37;;;15.00;99.90;;;;;;5037924;28;20208;-74
2024/01/24 06:33:38;;;;;;;3.00;0.90;;;15.00;99.90;;;;;;5068755;28;20645;-75
2024/01/24 06:36:04;;;;;;;5.50;1.00;;;15.00;99.90;;;;;;5082235;28;20581;-74
2024/01/24 06:38:30;;;;;;;9.57;1.40;;;15.10;99.90;;;;;;5061848;28;20205;-74
2024/01/24 06:40:56;;;;;;;9.30;2.10;;;15.10;99.90;;;;;;5072099;28;20208;-74
2024/01/24 06:43:21;;;;;;;8.90;1.77;;;15.10;99.90;;;;;;5071660;28;20521;-74
2024/01/24 06:45:47;;;;;;;8.50;1.53;;;15.10;99.90;;;;;;5071812;28;20575;-74
2024/01/24 06:48:13;;;;;;;8.07;1.70;;;15.10;99.90;;;;;;5071373;28;20621;-74
2024/01/24 06:50:39;;;;;;;10.30;2.00;;;15.10;99.90;;;;;;5074880;28;20203;-74
2024/01/24 06:53:09;;;;;;;12.90;2.13;;;15.10;99.90;;;;;;5092040;28;20215;-74
2024/01/24 06:55:36;;;;;;;9.23;2.37;;;15.10;99.90;;;;;;5093866;28;20180;-74
2024/01/24 06:58:02;;;;;;;13.97;2.40;;;15.10;99.90;;;;;;5073272;28;20645;-73
2024/01/24 07:00:29;;;;;;;9.70;4.20;;;15.00;99.90;;;;;;5083133;28;20613;-73
2024/01/24 07:02:56;;;;;;;6.87;2.07;;;15.00;99.90;;;;;;5073841;28;20979;-74
2024/01/24 07:05:22;;;;;;;9.20;3.00;;;15.00;99.90;;;;;;5085701;28;20594;-73
2024/01/24 07:07:48;;;;;;;11.50;2.87;;;14.90;99.90;;;;;;5091383;28;20582;-73
2024/01/24 07:10:13;;;;;;;8.43;2.47;;;14.80;99.90;;;;;;5051028;28;20548;-73
2024/01/24 07:12:45;;;;;;;17.77;3.23;;;14.80;99.90;;;;;;5052747;28;20692;-73
2024/01/24 07:15:11;;;;;;;10.03;2.90;;;14.80;99.90;;;;;;5071048;28;20667;-73
2024/01/24 07:17:37;;;;;;;10.70;2.33;;;14.70;99.90;;;;;;5032586;28;20635;-73
2024/01/24 07:20:03;;;;;;;11.77;2.70;;;14.70;99.90;;;;;;5026422;28;20756;-73
2024/01/24 07:22:29;;;;;;;12.40;3.10;;;14.70;99.90;;;;;;5044034;28;20184;-73
2024/01/24 07:24:54;;;;;;;13.30;3.60;;;14.60;99.90;;;;;;5066029;28;20588;-73
2024/01/24 07:27:20;;;;;;;13.77;3.33;;;14.60;99.90;;;;;;5076387;28;20178;-74
2024/01/24 07:29:46;;;;;;;10.20;2.73;;;14.50;99.90;;;;;;5048673;28;20371;-74
2024/01/24 07:32:11;;;;;;;11.17;3.20;;;14.60;99.90;;;;;;5048898;28;20183;-75
2024/01/24 07:34:40;;;;;;;14.80;3.07;;;14.60;99.90;;;;;;5071190;28;20168;-75
2024/01/24 07:37:07;;;;;;;12.63;2.80;;;14.50;99.90;;;;;;5038660;28;20181;-75
2024/01/24 07:39:34;;;;;;;8.53;2.77;;;14.50;99.90;;;;;;5045541;28;20654;-74
2024/01/24 07:41:59;;;;;;;10.23;2.53;;;14.50;99.90;;;;;;5056549;28;20650;-74
2024/01/24 07:44:26;;;;;;;12.50;3.00;;;14.50;99.90;;;;;;5061075;28;20578;-74
2024/01/24 07:46:52;;;;;;;16.00;3.53;;;14.50;99.90;;;;;;5053254;28;20184;-74
2024/01/24 07:49:17;;;;;;;11.87;2.43;;;14.50;99.90;;;;;;5044475;28;20588;-74
2024/01/24 07:51:46;;;;;;;12.23;2.97;;;14.50;99.90;;;;;;5041370;28;21188;-74
2024/01/24 07:54:13;;;;;;;10.00;2.50;;;14.50;99.90;;;;;;5041188;28;20615;-74
2024/01/24 07:56:39;;;;;;;11.87;3.10;;;14.60;99.90;;;;;;5054900;28;20601;-75
2024/01/24 07:59:05;;;;;;;12.60;3.03;;;14.50;99.90;;;;;;5070064;28;20631;-75
2024/01/24 08:01:31;;;;;;;8.87;2.40;;;14.60;99.90;;;;;;5066672;28;20684;-74
2024/01/24 08:03:58;;;;;;;17.47;3.53;;;14.60;99.90;;;;;;5055168;28;21126;-74
2024/01/24 08:06:24;;;;;;;12.73;2.73;;;14.60;99.90;;;;;;5046623;28;20589;-74
2024/01/24 08:08:50;;;;;;;11.53;2.73;;;14.60;99.90;;;;;;5041796;28;20584;-74
2024/01/24 08:11:17;;;;;;;10.60;3.00;;;14.60;99.90;;;;;;5049183;28;20699;-75
2024/01/24 08:13:43;;;;;;;18.23;4.17;;;14.60;99.90;;;;;;5060010;28;20709;-75
2024/01/24 08:16:09;;;;;;;13.60;3.23;;;14.60;99.90;;;;;;5070364;28;20578;-74
2024/01/24 08:18:35;;;;;;;12.83;4.17;;;14.70;99.90;;;;;;5068405;28;20626;-75
2024/01/24 08:21:01;;;;;;;18.87;3.50;;;14.60;99.90;;;;;;5032438;28;20670;-74
2024/01/24 08:23:27;;;;;;;12.47;2.63;;;14.70;99.90;;;;;;5048244;28;20172;-74
2024/01/24 08:25:52;;;;;;;13.97;2.87;;;14.70;99.90;;;;;;5035149;28;21187;-74
2024/01/24 08:28:18;;;;;;;20.40;4.23;;;14.70;99.90;;;;;;5069586;28;20557;-76
2024/01/24 08:30:44;;;;;;;12.70;2.90;;;14.70;99.90;;;;;;5043463;28;20231;-75
2024/01/24 08:33:10;;;;;;;12.00;2.90;;;14.70;99.90;;;;;;5067961;28;21001;-75
2024/01/24 08:35:36;;;;;;;12.23;3.07;;;14.70;99.90;;;;;;5061720;28;20207;-75
2024/01/24 08:38:05;;;;;;;13.03;3.43;;;14.70;99.90;;;;;;5045897;28;20208;-74
2024/01/24 08:40:30;;;;;;;18.13;4.37;;;14.70;99.90;;;;;;5055582;28;21192;-74
2024/01/24 08:42:56;;;;;;;18.60;5.57;;;14.70;99.90;;;;;;5051910;28;20586;-75
2024/01/24 08:45:22;;;;;;;16.20;5.37;;;14.70;99.90;;;;;;5053568;28;20177;-74
2024/01/24 08:47:49;;;;;;;23.73;5.40;;;14.70;99.90;;;;;;5042998;28;20203;-72
2024/01/24 08:50:14;;;;;;;15.53;3.63;;;14.70;99.90;;;;;;5043324;28;20622;-72
2024/01/24 08:52:40;;;;;;;22.97;4.03;;;14.70;99.90;;;;;;5040897;28;20587;-72
2024/01/24 08:55:13;;;;;;;15.80;5.70;;;14.70;99.90;;;;;;5070225;28;20203;-72
2024/01/24 08:57:56;;;;;;;11.20;3.73;;;14.70;99.90;;;;;;5054191;28;20263;-72
2024/01/24 09:00:23;;;;;;;14.93;3.93;;;14.70;99.90;;;;;;5061132;28;20978;-73
2024/01/24 09:02:48;;;;;;;17.80;4.90;;;14.70;99.90;;;;;;5052543;28;20591;-72
2024/01/24 09:05:18;;;;;;;18.80;4.47;;;14.70;99.90;;;;;;5044912;28;20176;-72
2024/01/24 09:07:44;;;;;;;13.73;4.17;;;14.70;99.90;;;;;;5047646;28;20595;-73
2024/01/24 09:10:10;;;;;;;17.67;3.70;;;14.70;99.90;;;;;;5064338;28;20943;-73
2024/01/24 09:12:36;;;;;;;17.73;3.10;;;14.70;99.90;;;;;;5069207;28;20593;-73
2024/01/24 09:15:04;;;;;;;17.07;3.77;;;14.70;99.90;;;;;;5047339;28;20661;-72
2024/01/24 09:17:30;;;;;;;17.40;4.27;;;14.70;99.90;;;;;;5060339;28;20752;-72
2024/01/24 09:19:55;;;;;;;20.63;4.70;;;14.70;99.90;;;;;;5050965;28;20626;-72
2024/01/24 09:22:21;;;;;;;17.93;4.57;;;14.80;99.90;;;;;;5061284;28;20177;-72
2024/01/24 09:24:47;;;;;;;17.27;3.70;;;14.70;99.90;;;;;;5051217;28;20180;-73
2024/01/24 09:27:12;;;;;;;14.20;4.10;;;14.80;99.90;;;;;;5061072;28;20185;-72
2024/01/24 09:29:38;;;;;;;19.40;4.03;;;14.80;99.90;;;;;;5046969;28;20223;-75
2024/01/24 09:32:04;;;;;;;14.93;3.87;;;14.80;99.90;;;;;;5015120;28;20173;-73
2024/01/24 09:34:30;;;;;;;19.47;4.30;;;14.80;99.90;;;;;;5050309;28;20219;-73
2024/01/24 09:36:55;;;;;;;17.50;3.77;;;14.80;99.90;;;;;;5034555;28;20165;-73
2024/01/24 09:39:27;;;;;;;14.13;3.93;;;14.90;99.90;;;;;;5052277;28;20197;-73
2024/01/24 09:41:54;;;;;;;16.30;4.40;;;14.90;99.90;;;;;;5034953;28;21172;-73
2024/01/24 09:44:20;;;;;;;19.30;4.40;;;14.90;99.90;;;;;;5033765;28;21157;-73
2024/01/24 09:46:48;;;;;;;15.83;4.70;;;14.90;99.90;;;;;;5034347;28;20587;-73
2024/01/24 09:49:15;;;;;;;18.17;4.50;;;14.90;99.90;;;;;;5040699;28;20582;-75
2024/01/24 09:51:42;;;;;;;20.83;4.23;;;14.90;99.90;;;;;;5036397;28;20683;-74
2024/01/24 09:54:08;;;;;;;16.93;4.43;;;15.00;99.90;;;;;;5034399;28;20587;-72
2024/01/24 09:56:38;;;;;;;23.80;5.10;;;15.00;99.90;;;;;;5052375;28;20610;-72
2024/01/24 09:59:05;;;;;;;15.13;4.37;;;15.00;99.90;;;;;;5033607;28;20627;-73
2024/01/24 10:01:34;;;;;;;20.30;5.07;;;15.00;99.90;;;;;;5052131;28;20615;-73
2024/01/24 10:04:00;;;;;;;20.03;4.70;;;15.00;99.90;;;;;;5056628;28;20601;-73
2024/01/24 10:06:29;;;;;;;14.20;4.17;;;15.00;99.90;;;;;;5063924;28;20590;-73
2024/01/24 10:08:56;;;;;;;21.00;4.67;;;15.20;99.90;;;;;;5032916;28;20688;-73
2024/01/24 10:11:23;;;;;;;13.50;3.70;;;15.10;99.90;;;;;;5035335;28;20619;-73
2024/01/24 10:13:49;;;;;;;17.07;5.20;;;15.10;99.90;;;;;;5033880;28;20590;-73
2024/01/24 10:16:15;;;;;;;15.37;4.70;;;15.10;99.90;;;;;;5051930;28;20592;-73
2024/01/24 10:18:42;;;;;;;14.53;3.87;;;15.10;99.90;;;;;;5051301;28;20639;-73
2024/01/24 10:21:08;;;;;;;17.33;4.63;;;15.10;99.90;;;;;;5034120;28;20726;-73
2024/01/24 10:23:33;;;;;;;16.97;3.80;;;15.10;99.90;;;;;;5051950;28;20663;-73
2024/01/24 10:26:00;;;;;;;14.40;3.83;;;15.10;99.90;;;;;;5051385;28;20231;-74
2024/01/24 10:28:26;;;;;;;22.43;5.77;;;15.10;99.90;;;;;;5016341;28;20201;-74
2024/01/24 10:30:52;;;;;;;17.90;5.10;;;15.20;99.90;;;;;;5047482;28;21024;-74
2024/01/24 10:33:26;;;;;;;17.37;4.27;;;15.20;99.90;;;;;;5041120;28;20184;-74
2024/01/24 10:35:52;;;;;;;12.43;3.57;;;15.30;99.90;;;;;;5026302;28;20653;-74
2024/01/24 10:38:22;;;;;;;19.47;4.47;;;15.30;99.90;;;;;;5052384;28;20673;-74
2024/01/24 10:40:52;;;;;;;20.00;4.70;;;15.30;99.90;;;;;;5042923;28;20627;-74
2024/01/24 10:43:21;;;;;;;19.77;4.70;;;15.40;99.90;;;;;;5065914;28;21003;-74
2024/01/24 10:45:48;;;;;;;18.47;4.07;;;15.40;99.90;;;;;;5046563;28;20590;-74
2024/01/24 10:48:15;;;;;;;20.30;5.03;;;15.40;99.90;;;;;;5065518;28;20637;-74
2024/01/24 10:50:42;;;;;;;25.47;6.27;;;15.50;99.90;;;;;;5078207;28;20981;-73
2024/01/24 10:53:14;;;;;;;17.37;5.83;;;15.40;99.90;;;;;;5072282;28;20598;-74
2024/01/24 10:55:41;;;;;;;16.40;4.60;;;15.40;99.90;;;;;;5045255;28;20583;-74
2024/01/24 10:58:11;;;;;;;16.10;5.47;;;15.40;99.90;;;;;;5071190;28;20626;-74
2024/01/24 11:00:39;;;;;;;18.50;5.17;;;15.40;99.90;;;;;;5053415;28;20621;-74
2024/01/24 11:03:06;;;;;;;16.23;4.37;;;15.40;99.90;;;;;;5071664;28;20589;-74
2024/01/24 11:05:34;;;;;;;27.77;5.67;;;15.30;99.90;;;;;;5053212;28;20583;-74
2024/01/24 11:08:27;;;;;;;14.47;4.50;;;15.30;99.90;;;;;;5070753;28;20629;-74
2024/01/24 11:10:56;;;;;;;16.97;5.03;;;15.30;99.90;;;;;;5065814;28;20990;-74
2024/01/24 11:13:24;;;;;;;15.03;4.50;;;15.40;99.90;;;;;;5076522;28;20944;-74
2024/01/24 11:15:54;;;;;;;18.63;4.97;;;15.40;99.90;;;;;;5044990;28;20582;-74
2024/01/24 11:18:33;;;;;;;19.87;5.60;;;15.40;99.90;;;;;;5056120;28;20623;-74
2024/01/24 11:21:00;;;;;;;12.73;4.70;;;15.30;99.90;;;;;;5058451;28;20687;-75
2024/01/24 11:23:38;;;;;;;18.10;5.90;;;15.40;99.90;;;;;;5085462;28;20594;-74
2024/01/24 11:26:04;;;;;;;15.37;4.23;;;15.30;99.90;;;;;;5036249;28;20582;-74
2024/01/24 11:28:30;;;;;;;20.00;3.47;;;15.30;99.90;;;;;;5037085;28;20594;-74
2024/01/24 11:30:56;;;;;;;16.00;3.80;;;15.30;99.90;;;;;;5041126;28;21244;-74
2024/01/24 11:33:23;;;;;;;17.43;5.43;;;15.30;99.90;;;;;;5035563;28;20276;-74
2024/01/24 11:35:51;;;;;;;19.77;4.30;;;15.30;99.90;;;;;;5053403;28;20630;-74
2024/01/24 11:38:16;;;;;;;17.90;5.23;;;15.30;99.90;;;;;;5038217;28;20787;-74
2024/01/24 11:40:46;;;;;;;19.70;5.13;;;15.30;99.90;;;;;;5025447;28;21543;-76
2024/01/24 11:43:33;;;;;;;19.87;5.53;;;15.30;99.90;;;;;;5028160;28;20222;-74
2024/01/24 11:46:03;;;;;;;19.57;5.80;;;15.30;99.90;;;;;;5057572;28;20609;-74
2024/01/24 11:48:34;;;;;;;20.13;5.17;;;15.30;99.90;;;;;;5053154;28;20588;-75
2024/01/24 11:51:05;;;;;;;17.07;4.57;;;15.40;99.90;;;;;;5053677;28;20603;-74
2024/01/24 11:53:30;;;;;;;20.93;4.60;;;15.40;99.90;;;;;;5058559;28;20582;-75
2024/01/24 11:56:04;;;;;;;20.00;6.27;;;15.50;99.90;;;;;;5053572;28;20617;-75
2024/01/24 11:58:30;;;;;;;19.97;4.53;;;15.40;99.90;;;;;;5044051;28;20226;-74
2024/01/24 12:01:03;;;;;;;22.40;5.70;;;15.40;99.90;;;;;;5054727;28;20629;-75
2024/01/24 12:03:28;;;;;;;13.50;4.50;;;15.40;99.90;;;;;;5062197;28;20583;-75
2024/01/24 12:05:54;;;;;;;23.03;4.80;;;15.50;99.90;;;;;;5059332;28;20584;-75
2024/01/24 12:08:20;;;;;;;16.37;4.33;;;15.60;99.90;;;;;;5046424;28;20610;-75
2024/01/24 12:10:47;;;;;;;17.23;4.83;;;15.70;99.90;;;;;;5070289;28;21195;-75
2024/01/24 12:13:14;;;;;;;20.20;5.70;;;15.70;99.90;;;;;;5062303;28;20571;-75
2024/01/24 12:15:42;;;;;;;18.80;3.43;;;15.70;99.90;;;;;;5019110;28;20967;-75
2024/01/24 12:18:09;;;;;;;19.80;5.90;;;15.70;99.90;;;;;;5050438;28;20626;-75
2024/01/24 12:20:36;;;;;;;20.43;4.70;;;15.70;99.90;;;;;;5058462;28;20606;-75
2024/01/24 12:23:03;;;;;;;14.67;3.97;;;15.80;99.90;;;;;;5052194;28;20678;-75
2024/01/24 12:25:30;;;;;;;15.87;4.80;;;15.80;99.90;;;;;;5036779;28;20918;-75
2024/01/24 12:27:57;;;;;;;17.37;4.30;;;15.70;99.90;;;;;;5041964;28;20635;-75
2024/01/24 12:30:25;;;;;;;13.43;4.53;;;15.80;99.90;;;;;;5052376;28;20642;-75
2024/01/24 12:32:55;;;;;;;17.67;3.77;;;15.80;99.90;;;;;;5052496;28;20618;-75
2024/01/24 12:35:22;;;;;;;16.57;4.80;;;15.70;99.90;;;;;;5035831;28;20649;-75
2024/01/24 12:37:49;;;;;;;13.70;4.00;;;15.70;99.90;;;;;;5052503;28;20630;-75
2024/01/24 12:40:16;;;;;;;18.47;4.53;;;15.70;99.90;;;;;;5063623;28;20984;-75
2024/01/24 12:42:42;;;;;;;14.00;4.53;;;15.70;99.90;;;;;;5088727;28;20574;-75